Dilley, Texas
Current Conditions -  °F | °C
As of 10:53 AM on Sunday 23 Nov 2014 (Local Time) from KCOT Reporting Station
Clear Clear  
Wind Chill: 77°   Ceiling: Unl
Heat Index: 78°   Visibility: 10mi
Dew Point: 50°   Wind: 0mph
Humidity: 39%   Direction: NA
Pressure: 29.71"   Gusts: NA
Location:  28.67°N, 99.17°W
Report Text: KCOT 231653Z AUTO 00000KT 10SM CLR 25/10 A2971 RMK AO2 SLP056 T02500100 $
Loading
Personal Weather Stations






























Interactive Weather Map New forecast layout! Learn more

10-Day Weather Forecast

Advertisements
Track Severe Weather on mobile